地図

経路データ

SID SEASON NUMBER BASIN SUBBASIN NAME ISO_TIME NATURE LAT LON WMO_WIND WMO_PRES WMO_AGENCY TRACK_TYPE DIST2LAND LANDFALL IFLAG USA_AGENCY USA_ATCF_ID USA_LAT USA_LON USA_RECORD USA_STATUS USA_WIND USA_PRES USA_SSHS USA_R34_NE USA_R34_SE USA_R34_SW USA_R34_NW USA_R50_NE USA_R50_SE USA_R50_SW USA_R50_NW USA_R64_NE USA_R64_SE USA_R64_SW USA_R64_NW USA_POCI USA_ROCI USA_RMW USA_EYE TOKYO_LAT TOKYO_LON TOKYO_GRADE TOKYO_WIND TOKYO_PRES TOKYO_R50_DIR TOKYO_R50_LONG TOKYO_R50_SHORT TOKYO_R30_DIR TOKYO_R30_LONG TOKYO_R30_SHORT TOKYO_LAND CMA_LAT CMA_LON CMA_CAT CMA_WIND CMA_PRES HKO_LAT HKO_LON HKO_CAT HKO_WIND HKO_PRES NEWDELHI_LAT NEWDELHI_LON NEWDELHI_GRADE NEWDELHI_WIND NEWDELHI_PRES NEWDELHI_CI NEWDELHI_DP NEWDELHI_POCI REUNION_LAT REUNION_LON REUNION_TYPE REUNION_WIND REUNION_PRES REUNION_TNUM REUNION_CI REUNION_RMW REUNION_R34_NE REUNION_R34_SE REUNION_R34_SW REUNION_R34_NW REUNION_R50_NE REUNION_R50_SE REUNION_R50_SW REUNION_R50_NW REUNION_R64_NE REUNION_R64_SE REUNION_R64_SW REUNION_R64_NW BOM_LAT BOM_LON BOM_TYPE BOM_WIND BOM_PRES BOM_TNUM BOM_CI BOM_RMW BOM_R34_NE BOM_R34_SE BOM_R34_SW BOM_R34_NW BOM_R50_NE BOM_R50_SE BOM_R50_SW BOM_R50_NW BOM_R64_NE BOM_R64_SE BOM_R64_SW BOM_R64_NW BOM_ROCI BOM_POCI BOM_EYE BOM_POS_METHOD BOM_PRES_METHOD NADI_LAT NADI_LON NADI_CAT NADI_WIND NADI_PRES WELLINGTON_LAT WELLINGTON_LON WELLINGTON_WIND WELLINGTON_PRES DS824_LAT DS824_LON DS824_STAGE DS824_WIND DS824_PRES TD9636_LAT TD9636_LON TD9636_STAGE TD9636_WIND TD9636_PRES TD9635_LAT TD9635_LON TD9635_WIND TD9635_PRES TD9635_ROCI NEUMANN_LAT NEUMANN_LON NEUMANN_CLASS NEUMANN_WIND NEUMANN_PRES MLC_LAT MLC_LON MLC_CLASS MLC_WIND MLC_PRES USA_GUST BOM_GUST BOM_GUST_PER REUNION_GUST REUNION_GUST_PER USA_SEAHGT USA_SEARAD_NE USA_SEARAD_SE USA_SEARAD_SW USA_SEARAD_NW STORM_SPEED STORM_DIR
1921326N10140 1921 67 WP MM NOT_NAMED 1921-11-22 10:00:00 NR 10.1000 140.300 main 1314 1314 __________O___ -1 10.1000 140.300 2 1 0
1921326N10140 1921 67 WP MM NOT_NAMED 1921-11-22 12:00:00 NR 10.1166 140.319 main 1314 1314 __________P___ -1 10.1166 140.319 2 1 0
1921326N10140 1921 67 WP MM NOT_NAMED 1921-11-22 15:00:00 NR 10.1416 140.327 main 1314 1314 __________P___ -1 10.1416 140.327 2 1 317
1921326N10140 1921 67 WP MM NOT_NAMED 1921-11-22 18:00:00 NR 10.1666 140.285 main 1325 1321 __________P___ -1 10.1666 140.285 2 2 287
1921326N10140 1921 67 WP MM NOT_NAMED 1921-11-22 21:00:00 NR 10.1916 140.164 main 1321 1317 __________P___ -1 10.1916 140.164 2 3 280
1921326N10140 1921 67 WP MM NOT_NAMED 1921-11-22 22:00:00 NR 10.2000 140.100 main 1317 1309 __________O___ -1 10.2000 140.100 2 5 276
1921326N10140 1921 67 WP MM NOT_NAMED 1921-11-23 00:00:00 NR 10.2167 139.935 main 1309 1298 __________P___ -1 10.2167 139.935 2 6 275
1921326N10140 1921 67 WP MM NOT_NAMED 1921-11-23 03:00:00 NR 10.2417 139.605 main 1298 1295 __________P___ -1 10.2417 139.605 2 7 274
1921326N10140 1921 67 WP MM NOT_NAMED 1921-11-23 06:00:00 NR 10.2667 139.202 main 1295 1282 __________P___ -1 10.2667 139.202 2 8 273
1921326N10140 1921 67 WP MM NOT_NAMED 1921-11-23 09:00:00 NR 10.2916 138.754 main 1282 1276 __________P___ -1 10.2916 138.754 2 9 273
1921326N10140 1921 67 WP MM NOT_NAMED 1921-11-23 10:00:00 NR 10.3000 138.600 main 1276 1268 __________O___ -1 10.3000 138.600 2 9 273
1921326N10140 1921 67 WP MM NOT_NAMED 1921-11-23 12:00:00 NR 10.3141 138.301 main 1268 1256 __________P___ -1 10.3141 138.301 2 9 273
1921326N10140 1921 67 WP MM NOT_NAMED 1921-11-23 15:00:00 NR 10.3351 137.827 main 1256 1214 __________P___ -1 10.3351 137.827 2 9 273
1921326N10140 1921 67 WP MM NOT_NAMED 1921-11-23 18:00:00 NR 10.3588 137.339 main 1214 1171 __________P___ -1 10.3588 137.339 2 10 273
1921326N10140 1921 67 WP MM NOT_NAMED 1921-11-23 21:00:00 NR 10.3883 136.857 main 1171 1150 __________P___ -1 10.3883 136.857 2 9 274
1921326N10140 1921 67 WP MM NOT_NAMED 1921-11-23 22:00:00 NR 10.4000 136.700 main 1150 1118 __________O___ -1 10.4000 136.700 2 9 275
1921326N10140 1921 67 WP MM NOT_NAMED 1921-11-24 00:00:00 NR 10.4274 136.405 main 1118 1079 __________P___ -1 10.4274 136.405 2 9 276
1921326N10140 1921 67 WP MM NOT_NAMED 1921-11-24 03:00:00 NR 10.4750 135.976 main 1079 1037 __________P___ -1 10.4750 135.976 2 8 277
1921326N10140 1921 67 WP MM NOT_NAMED 1921-11-24 06:00:00 NR 10.5276 135.556 main 1037 986 __________P___ -1 10.5276 135.556 2 8 277
1921326N10140 1921 67 WP MM NOT_NAMED 1921-11-24 09:00:00 NR 10.5820 135.139 main 986 975 __________P___ -1 10.5820 135.139 2 8 278
1921326N10140 1921 67 WP MM NOT_NAMED 1921-11-24 10:00:00 NR 10.6000 135.000 main 975 943 __________O___ -1 10.6000 135.000 2 8 277
1921326N10140 1921 67 WP MM NOT_NAMED 1921-11-24 12:00:00 NR 10.6278 134.735 main 943 902 __________P___ -1 10.6278 134.735 2 8 276
1921326N10140 1921 67 WP MM NOT_NAMED 1921-11-24 15:00:00 NR 10.6694 134.338 main 902 860 __________P___ -1 10.6694 134.338 2 8 276
1921326N10140 1921 67 WP MM NOT_NAMED 1921-11-24 18:00:00 NR 10.7169 133.922 main 860 819 __________P___ -1 10.7169 133.922 2 9 277
1921326N10140 1921 67 WP MM NOT_NAMED 1921-11-24 21:00:00 NR 10.7764 133.465 main 819 798 __________P___ -1 10.7764 133.465 2 9 278
1921326N10140 1921 67 WP MM NOT_NAMED 1921-11-24 22:00:00 NR 10.8000 133.300 main 798 766 __________O___ -1 10.8000 133.300 2 10 280
1921326N10140 1921 67 WP MM NOT_NAMED 1921-11-25 00:00:00 NR 10.8602 132.961 main 769 708 __________P___ -1 10.8602 132.961 2 11 281
1921326N10140 1921 67 WP MM NOT_NAMED 1921-11-25 03:00:00 NR 10.9633 132.409 main 708 649 __________P___ -1 10.9633 132.409 2 12 280
1921326N10140 1921 67 WP MM NOT_NAMED 1921-11-25 06:00:00 NR 11.0709 131.801 main 649 579 __________P___ -1 11.0709 131.801 2 13 279
1921326N10140 1921 67 WP MM NOT_NAMED 1921-11-25 09:00:00 NR 11.1706 131.135 main 579 557 __________P___ -1 11.1706 131.135 2 13 278
1921326N10140 1921 67 WP MM NOT_NAMED 1921-11-25 10:00:00 NR 11.2000 130.900 main 557 502 __________O___ -1 11.2000 130.900 2 15 276
1921326N10140 1921 67 WP MM NOT_NAMED 1921-11-25 12:00:00 NR 11.2452 130.389 main 502 416 __________P___ -1 11.2452 130.389 2 16 274
1921326N10140 1921 67 WP MM NOT_NAMED 1921-11-25 15:00:00 NR 11.3002 129.571 main 416 318 __________P___ -1 11.3002 129.571 2 16 274
1921326N10140 1921 67 WP MM NOT_NAMED 1921-11-25 18:00:00 NR 11.3451 128.739 main 318 233 __________P___ -1 11.3451 128.739 2 16 273
1921326N10140 1921 67 WP MM NOT_NAMED 1921-11-25 21:00:00 NR 11.3860 127.946 main 233 212 __________P___ -1 11.3860 127.946 2 15 273
1921326N10140 1921 67 WP MM NOT_NAMED 1921-11-25 22:00:00 NR 11.4000 127.700 main 212 169 __________O___ -1 11.4000 127.700 3 13 274
1921326N10140 1921 67 WP MM NOT_NAMED 1921-11-26 00:00:00 NR 11.4297 127.278 main 169 113 __________P___ -1 11.4297 127.278 3 12 274
1921326N10140 1921 67 WP MM NOT_NAMED 1921-11-26 03:00:00 NR 11.4749 126.703 main 113 66 __________P___ -1 11.4749 126.703 3 11 275
1921326N10140 1921 67 WP MM NOT_NAMED 1921-11-26 06:00:00 NR 11.5239 126.157 main 66 15 __________P___ -1 11.5239 126.157 3 11 276
1921326N10140 1921 67 WP MM NOT_NAMED 1921-11-26 09:00:00 NR 11.5795 125.597 main 15 0 __________P___ -1 11.5795 125.597 3 11 276
1921326N10140 1921 67 WP MM NOT_NAMED 1921-11-26 10:00:00 NR 11.6000 125.400 main 0 0 __________O___ -1 11.6000 125.400 4 13 277
1921326N10140 1921 67 WP MM NOT_NAMED 1921-11-26 12:00:00 NR 11.6603 124.944 main 10 10 __________P___ -1 11.6603 124.944 4 14 278
1921326N10140 1921 67 WP MM NOT_NAMED 1921-11-26 15:00:00 NR 11.7572 124.228 main 15 0 __________P___ -1 11.7572 124.228 4 14 277
1921326N10140 1921 67 WP MM NOT_NAMED 1921-11-26 18:00:00 NR 11.8424 123.506 main 24 0 __________P___ -1 11.8424 123.506 4 14 276
1921326N10140 1921 67 WP MM NOT_NAMED 1921-11-26 21:00:00 NR 11.8940 122.816 main 44 31 __________P___ -1 11.8940 122.816 4 13 274
1921326N10140 1921 67 WP MM NOT_NAMED 1921-11-26 22:00:00 NR 11.9000 122.600 main 31 11 __________O___ -1 11.9000 122.600 4 12 267
1921326N10140 1921 67 WP MM NOT_NAMED 1921-11-27 00:00:00 NR 11.8679 122.212 main 11 0 __________P___ -1 11.8679 122.212 4 11 263
1921326N10140 1921 67 WP MM NOT_NAMED 1921-11-27 03:00:00 NR 11.7820 121.675 main 10 21 __________P___ -1 11.7820 121.675 4 10 260
1921326N10140 1921 67 WP MM NOT_NAMED 1921-11-27 06:00:00 NR 11.6843 121.169 main 55 55 __________P___ -1 11.6843 121.169 4 10 260
1921326N10140 1921 67 WP MM NOT_NAMED 1921-11-27 09:00:00 NR 11.6120 120.670 main 80 86 __________P___ -1 11.6120 120.670 4 10 263
1921326N10140 1921 67 WP MM NOT_NAMED 1921-11-27 10:00:00 NR 11.6000 120.500 main 93 64 __________O___ -1 11.6000 120.500 4 11 266
1921326N10140 1921 67 WP MM NOT_NAMED 1921-11-27 12:00:00 NR 11.5714 120.105 main 64 33 __________P___ -1 11.5714 120.105 4 12 268
1921326N10140 1921 67 WP MM NOT_NAMED 1921-11-27 15:00:00 NR 11.5653 119.505 main 33 33 __________P___ -1 11.5653 119.505 4 11 273
1921326N10140 1921 67 WP MM NOT_NAMED 1921-11-27 18:00:00 NR 11.6336 118.936 main 70 70 __________P___ -1 11.6336 118.936 4 11 283
1921326N10140 1921 67 WP MM NOT_NAMED 1921-11-27 21:00:00 NR 11.8108 118.441 main 128 128 __________P___ -1 11.8108 118.441 4 10 293
1921326N10140 1921 67 WP MM NOT_NAMED 1921-11-27 22:00:00 NR 11.9000 118.300 main 143 143 __________O___ -1 11.9000 118.300 4 10 310
1921326N10140 1921 67 WP MM NOT_NAMED 1921-11-28 00:00:00 NR 12.1333 118.047 main 182 189 __________P___ -1 12.1333 118.047 4 11 322
1921326N10140 1921 67 WP MM NOT_NAMED 1921-11-28 03:00:00 NR 12.5907 117.750 main 242 242 __________P___ -1 12.5907 117.750 4 11 334
1921326N10140 1921 67 WP MM NOT_NAMED 1921-11-28 06:00:00 NR 13.1327 117.543 main 296 303 __________P___ -1 13.1327 117.543 4 12 344
1921326N10140 1921 67 WP MM NOT_NAMED 1921-11-28 09:00:00 NR 13.7090 117.422 main 315 307 __________P___ -1 13.7090 117.422 4 12 350
1921326N10140 1921 67 WP MM NOT_NAMED 1921-11-28 10:00:00 NR 13.9000 117.400 main 307 298 __________O___ -1 13.9000 117.400 4 11 353
1921326N10140 1921 67 WP MM NOT_NAMED 1921-11-28 12:00:00 NR 14.2389 117.355 main 298 276 __________P___ -1 14.2389 117.355 4 10 358
1921326N10140 1921 67 WP MM NOT_NAMED 1921-11-28 15:00:00 NR 14.7536 117.356 main 276 258 __________P___ -1 14.7536 117.356 4 10 4
1921326N10140 1921 67 WP MM NOT_NAMED 1921-11-28 18:00:00 NR 15.2786 117.426 main 258 236 __________P___ -1 15.2786 117.426 4 11 10
1921326N10140 1921 67 WP MM NOT_NAMED 1921-11-28 21:00:00 NR 15.8170 117.550 main 236 224 __________P___ -1 15.8170 117.550 4 11 13
1921326N10140 1921 67 WP MM NOT_NAMED 1921-11-28 22:00:00 NR 16.0000 117.600 main 224 214 __________O___ -1 16.0000 117.600 4 12 13
1921326N10140 1921 67 WP MM NOT_NAMED 1921-11-29 00:00:00 NR 16.3824 117.689 main 218 213 __________P___ -1 16.3824 117.689 4 12 14
1921326N10140 1921 67 WP MM NOT_NAMED 1921-11-29 03:00:00 NR 16.9688 117.859 main 217 217 __________P___ -1 16.9688 117.859 4 12 17
1921326N10140 1921 67 WP MM NOT_NAMED 1921-11-29 06:00:00 NR 17.5540 118.069 main 232 216 __________P___ -1 17.5540 118.069 4 12 21
1921326N10140 1921 67 WP MM NOT_NAMED 1921-11-29 09:00:00 NR 18.1192 118.313 main 218 211 __________P___ -1 18.1192 118.313 4 12 23
1921326N10140 1921 67 WP MM NOT_NAMED 1921-11-29 10:00:00 NR 18.3000 118.400 main 215 210 __________O___ -1 18.3000 118.400 4 12 24
1921326N10140 1921 67 WP MM NOT_NAMED 1921-11-29 12:00:00 NR 18.6655 118.561 main 211 201 __________P___ -1 18.6655 118.561 4 12 25
1921326N10140 1921 67 WP MM NOT_NAMED 1921-11-29 15:00:00 NR 19.1892 118.828 main 209 200 __________P___ -1 19.1892 118.828 4 11 28
1921326N10140 1921 67 WP MM NOT_NAMED 1921-11-29 18:00:00 NR 19.6669 119.131 main 214 206 __________P___ -1 19.6669 119.131 4 11 34
1921326N10140 1921 67 WP MM NOT_NAMED 1921-11-29 21:00:00 NR 20.0799 119.475 main 216 216 __________P___ -1 20.0799 119.475 4 10 40
1921326N10140 1921 67 WP MM NOT_NAMED 1921-11-29 22:00:00 NR 20.2000 119.600 main 218 187 __________O___ -1 20.2000 119.600 4 10 47
1921326N10140 1921 67 WP MM NOT_NAMED 1921-11-30 00:00:00 NR 20.4202 119.861 main 187 140 __________P___ -1 20.4202 119.861 4 10 53
1921326N10140 1921 67 WP MM NOT_NAMED 1921-11-30 03:00:00 NR 20.6876 120.289 main 140 111 __________P___ -1 20.6876 120.289 4 10 60
1921326N10140 1921 67 WP MM NOT_NAMED 1921-11-30 06:00:00 NR 20.8936 120.752 main 111 94 __________P___ -1 20.8936 120.752 4 10 68
1921326N10140 1921 67 WP MM NOT_NAMED 1921-11-30 09:00:00 NR 21.0540 121.236 main 94 98 __________P___ -1 21.0540 121.236 4 10 71
1921326N10140 1921 67 WP MM NOT_NAMED 1921-11-30 10:00:00 NR 21.1000 121.400 main 103 103 __________O___ -1 21.1000 121.400 4 10 74
1921326N10140 1921 67 WP MM NOT_NAMED 1921-11-30 12:00:00 NR 21.1840 121.730 main 113 121 __________P___ -1 21.1840 121.730 4 10 76
1921326N10140 1921 67 WP MM NOT_NAMED 1921-11-30 15:00:00 NR 21.2932 122.228 main 150 159 __________P___ -1 21.2932 122.228 4 10 78
1921326N10140 1921 67 WP MM NOT_NAMED 1921-11-30 18:00:00 NR 21.3876 122.729 main 194 204 __________P___ -1 21.3876 122.729 4 10 79
1921326N10140 1921 67 WP MM NOT_NAMED 1921-11-30 21:00:00 NR 21.4727 123.232 main 241 251 __________P___ -1 21.4727 123.232 4 10 80
1921326N10140 1921 67 WP MM NOT_NAMED 1921-11-30 22:00:00 NR 21.5000 123.400 main 262 __________O___ -1 21.5000 123.400 4 10 80

デジタル台風データ・検索

IBTrACS Databaseについて

本データベースは、米国NOAAが公開する1842年以降の世界の熱帯低気圧のベストトラックデータアーカイブInternational Best Track Archive for Climate Stewardship (IBTrACS)を、ウェブで閲覧しやすい形式に変換したものです。

最終更新日:2021-12-03